createdAt,value
2022-10-06T00:01:04.997Z,101289.09
2022-10-06T00:03:32.800Z,101287.19
2022-10-06T00:06:01.434Z,101283.75
2022-10-06T00:08:31.196Z,101287.38
2022-10-06T00:10:58.766Z,101283.69
2022-10-06T00:13:26.439Z,101289.69
2022-10-06T00:15:54.230Z,101287.78
2022-10-06T00:18:23.439Z,101292.97
2022-10-06T00:20:55.950Z,101294.63
2022-10-06T00:23:23.495Z,101301.00
2022-10-06T00:25:51.205Z,101294.50
2022-10-06T00:28:18.788Z,101307.84
2022-10-06T00:30:46.933Z,101303.66
2022-10-06T00:33:17.334Z,101306.91
2022-10-06T00:35:46.567Z,101310.59
2022-10-06T00:38:15.969Z,101312.00
2022-10-06T00:40:45.234Z,101313.84
2022-10-06T00:43:43.787Z,101310.09
2022-10-06T00:46:15.409Z,101321.41
2022-10-06T00:48:43.615Z,101314.63
2022-10-06T00:51:12.740Z,101322.41
2022-10-06T00:53:40.247Z,101302.00
2022-10-06T00:56:07.676Z,101313.69
2022-10-06T00:58:35.311Z,101319.97
2022-10-06T01:01:04.022Z,101321.75
2022-10-06T01:03:34.545Z,101320.81
2022-10-06T01:06:03.638Z,101330.38
2022-10-06T01:08:33.865Z,101336.38
2022-10-06T01:11:01.861Z,101330.03
2022-10-06T01:13:30.157Z,101331.69
2022-10-06T01:16:04.870Z,101335.19
2022-10-06T01:18:34.073Z,101344.81
2022-10-06T01:21:07.891Z,101327.44
2022-10-06T01:23:37.525Z,101324.19
2022-10-06T01:26:09.957Z,101336.31
2022-10-06T01:28:38.632Z,101328.91
2022-10-06T01:31:08.875Z,101332.38
2022-10-06T01:33:36.470Z,101334.13
2022-10-06T01:36:04.607Z,101343.72
2022-10-06T01:38:32.583Z,101353.44
2022-10-06T01:41:01.520Z,101341.34
2022-10-06T01:43:29.067Z,101342.88
2022-10-06T01:45:57.661Z,101348.97
2022-10-06T01:48:26.707Z,101338.41
2022-10-06T01:50:54.665Z,101339.06
2022-10-06T01:53:22.762Z,101347.63
2022-10-06T01:55:50.161Z,101339.31
2022-10-06T01:58:18.907Z,101348.66
2022-10-06T02:00:46.439Z,101351.50
2022-10-06T02:03:13.849Z,101348.03
2022-10-06T02:05:41.238Z,101353.47
2022-10-06T02:08:09.592Z,101341.06
2022-10-06T02:10:37.053Z,101347.38
2022-10-06T02:13:05.098Z,101349.06
2022-10-06T02:15:34.044Z,101353.75
2022-10-06T02:18:01.443Z,101357.22
2022-10-06T02:20:28.892Z,101357.06
2022-10-06T02:22:56.285Z,101367.63
2022-10-06T02:25:23.708Z,101366.75
2022-10-06T02:27:51.356Z,101367.69
2022-10-06T02:30:18.830Z,101368.47
2022-10-06T02:32:47.538Z,101368.31
2022-10-06T02:35:15.060Z,101380.59
2022-10-06T02:37:42.554Z,101376.13
2022-10-06T02:40:10.964Z,101373.66
2022-10-06T02:42:39.696Z,101381.63
2022-10-06T02:45:07.874Z,101372.75
2022-10-06T02:47:36.912Z,101369.91
2022-10-06T02:50:07.995Z,101384.75
2022-10-06T02:52:37.956Z,101397.03
2022-10-06T02:55:07.084Z,101393.47
2022-10-06T02:57:34.511Z,101380.88
2022-10-06T03:00:01.886Z,101382.66
2022-10-06T03:02:30.914Z,101394.84
2022-10-06T03:04:58.417Z,101411.69
2022-10-06T03:07:27.136Z,101410.09
2022-10-06T03:09:55.255Z,101418.53
2022-10-06T03:12:23.079Z,101417.72
2022-10-06T03:14:50.500Z,101425.56
2022-10-06T03:17:17.888Z,101426.41
2022-10-06T03:19:45.263Z,101421.22
2022-10-06T03:22:12.651Z,101436.78
2022-10-06T03:24:41.369Z,101446.38
2022-10-06T03:27:08.756Z,101444.19
2022-10-06T03:29:36.182Z,101454.91
2022-10-06T03:32:03.837Z,101455.66
2022-10-06T03:34:31.287Z,101460.84
2022-10-06T03:36:58.886Z,101466.03
2022-10-06T03:39:26.383Z,101476.28
2022-10-06T03:41:55.256Z,101492.16
2022-10-06T03:44:22.858Z,101498.22
2022-10-06T03:46:51.274Z,101495.44
2022-10-06T03:49:18.757Z,101512.03
2022-10-06T03:51:46.191Z,101516.50
2022-10-06T03:54:14.979Z,101514.84
2022-10-06T03:56:43.285Z,101514.97
2022-10-06T03:59:13.845Z,101519.09
2022-10-06T04:01:43.539Z,101528.72
2022-10-06T04:04:12.248Z,101532.31
2022-10-06T04:06:42.754Z,101548.91
2022-10-06T04:09:15.521Z,101545.97
2022-10-06T04:11:44.723Z,101553.88
2022-10-06T04:14:15.777Z,101556.50
2022-10-06T04:16:44.795Z,101568.75
2022-10-06T04:19:13.816Z,101587.97
2022-10-06T04:21:43.314Z,101589.59
2022-10-06T04:24:11.695Z,101594.84
2022-10-06T04:26:41.251Z,101593.16
2022-10-06T04:29:08.968Z,101587.72
2022-10-06T04:31:39.186Z,101586.03
2022-10-06T04:34:08.154Z,101580.97
2022-10-06T04:36:39.633Z,101577.44
2022-10-06T04:39:08.142Z,101577.41
2022-10-06T04:41:37.404Z,101597.47
2022-10-06T04:44:06.066Z,101603.31
2022-10-06T04:46:43.277Z,101612.78
2022-10-06T04:49:19.408Z,101619.88
2022-10-06T04:51:48.499Z,101614.63
2022-10-06T04:54:15.967Z,101621.72
2022-10-06T04:56:43.475Z,101628.69
2022-10-06T04:59:10.871Z,101636.56
2022-10-06T05:01:38.446Z,101638.94
2022-10-06T05:04:07.533Z,101636.38
2022-10-06T05:06:38.468Z,101647.53
2022-10-06T05:09:08.316Z,101656.28
2022-10-06T05:11:36.549Z,101656.22
2022-10-06T05:14:03.991Z,101667.47
2022-10-06T05:16:32.084Z,101674.31
2022-10-06T05:18:59.854Z,101684.78
2022-10-06T05:21:29.036Z,101695.56
2022-10-06T05:23:57.834Z,101705.94
2022-10-06T05:26:27.169Z,101705.00
2022-10-06T05:28:55.047Z,101707.69
2022-10-06T05:31:24.030Z,101718.94
2022-10-06T05:33:51.492Z,101724.16
2022-10-06T05:36:21.245Z,101731.06
2022-10-06T05:38:49.049Z,101740.63
2022-10-06T05:41:21.003Z,101742.34
2022-10-06T05:43:48.841Z,101752.69
2022-10-06T05:46:20.260Z,101756.22
2022-10-06T05:48:49.080Z,101772.78
2022-10-06T05:51:17.771Z,101783.22
2022-10-06T05:53:45.220Z,101790.13
2022-10-06T05:56:14.857Z,101806.63
2022-10-06T05:58:45.326Z,101802.31
2022-10-06T06:01:15.745Z,101819.66
2022-10-06T06:03:44.639Z,101822.25
2022-10-06T06:06:20.785Z,101833.56
2022-10-06T06:08:49.168Z,101840.50
2022-10-06T06:11:16.542Z,101839.59
2022-10-06T06:13:45.330Z,101844.00
2022-10-06T06:16:14.993Z,101857.00
2022-10-06T06:18:42.502Z,101869.13
2022-10-06T06:21:11.210Z,101877.00
2022-10-06T06:23:40.331Z,101882.16
2022-10-06T06:26:09.956Z,101892.56
2022-10-06T06:28:37.613Z,101895.06
2022-10-06T06:31:08.956Z,101910.63
2022-10-06T06:33:38.045Z,101903.84
2022-10-06T06:36:13.272Z,101909.72
2022-10-06T06:38:40.658Z,101920.28
2022-10-06T06:41:14.648Z,101914.19
2022-10-06T06:43:42.527Z,101926.38
2022-10-06T06:46:11.424Z,101944.25
2022-10-06T06:48:39.164Z,101941.75
2022-10-06T06:51:07.450Z,101946.25
2022-10-06T06:53:35.469Z,101942.06
2022-10-06T06:56:04.063Z,101944.69
2022-10-06T06:58:32.811Z,101958.50
2022-10-06T07:01:08.664Z,101972.06
2022-10-06T07:03:56.624Z,101978.16
2022-10-06T07:06:28.537Z,101979.56
2022-10-06T07:08:57.599Z,101984.44
2022-10-06T07:11:27.919Z,101993.84
2022-10-06T07:13:57.987Z,101993.94
2022-10-06T07:16:43.952Z,102000.06
2022-10-06T07:19:30.883Z,102004.41
2022-10-06T07:22:18.642Z,102011.38
2022-10-06T07:25:04.015Z,102019.63
2022-10-06T07:27:32.426Z,102027.78
2022-10-06T07:29:59.920Z,102018.50
2022-10-06T07:32:30.872Z,102032.28
2022-10-06T07:35:00.682Z,102032.47
2022-10-06T07:37:29.651Z,102028.81
2022-10-06T07:39:57.101Z,102037.47
2022-10-06T07:42:24.523Z,102046.13
2022-10-06T07:45:05.898Z,102041.91
2022-10-06T07:47:33.697Z,102042.78
2022-10-06T07:50:02.423Z,102048.09
2022-10-06T07:52:29.929Z,102059.63
2022-10-06T07:54:58.285Z,102056.34
2022-10-06T07:57:26.801Z,102065.94
2022-10-06T07:59:55.023Z,102062.88
2022-10-06T08:02:28.322Z,102063.13
2022-10-06T08:04:57.680Z,102071.06
2022-10-06T08:07:27.395Z,102075.53
2022-10-06T08:09:54.783Z,102080.25
2022-10-06T08:12:34.345Z,102082.94
2022-10-06T08:15:07.009Z,102088.91
2022-10-06T08:17:36.110Z,102091.56
2022-10-06T08:20:04.544Z,102098.50
2022-10-06T08:22:33.427Z,102101.16
2022-10-06T08:25:06.310Z,102106.59
2022-10-06T08:27:35.336Z,102113.00
2022-10-06T08:30:03.477Z,102118.50
2022-10-06T08:32:32.141Z,102124.34
2022-10-06T08:34:59.993Z,102124.25
2022-10-06T08:37:27.791Z,102140.72
2022-10-06T08:39:57.000Z,102132.72
2022-10-06T08:42:32.700Z,102147.69
2022-10-06T08:45:03.841Z,102147.91
2022-10-06T08:47:35.770Z,102148.94
2022-10-06T08:50:05.855Z,102153.47
2022-10-06T08:52:49.047Z,102161.50
2022-10-06T08:55:31.625Z,102164.91
2022-10-06T08:58:08.759Z,102155.63
2022-10-06T09:00:37.955Z,102159.75
2022-10-06T09:03:07.554Z,102166.19
2022-10-06T09:05:35.270Z,102172.59
2022-10-06T09:08:18.519Z,102175.84
2022-10-06T09:11:02.685Z,102181.09
2022-10-06T09:13:33.595Z,102177.09
2022-10-06T09:16:07.884Z,102180.94
2022-10-06T09:19:06.795Z,102186.69
2022-10-06T09:21:35.357Z,102190.50
2022-10-06T09:24:08.591Z,102189.03
2022-10-06T09:26:43.271Z,102192.03
2022-10-06T09:29:11.144Z,102196.63
2022-10-06T09:31:42.169Z,102194.84
2022-10-06T09:34:22.655Z,102204.03
2022-10-06T09:37:02.763Z,102215.25
2022-10-06T09:39:36.335Z,102222.66
2022-10-06T09:42:12.370Z,102226.16
2022-10-06T09:44:48.074Z,102232.41
2022-10-06T09:47:35.506Z,102227.66
2022-10-06T09:50:05.487Z,102226.19
2022-10-06T09:52:32.934Z,102227.78
2022-10-06T09:55:12.451Z,102229.63
2022-10-06T09:57:49.766Z,102235.69
2022-10-06T10:00:27.549Z,102233.03
2022-10-06T10:02:59.523Z,102237.47
2022-10-06T10:05:29.600Z,102237.28
2022-10-06T10:08:04.550Z,102231.72
2022-10-06T10:10:34.346Z,102236.50
2022-10-06T10:13:04.284Z,102240.63
2022-10-06T10:15:34.981Z,102245.47
2022-10-06T10:18:04.072Z,102245.81
2022-10-06T10:20:35.091Z,102238.84
2022-10-06T10:23:07.216Z,102244.81
2022-10-06T10:25:46.027Z,102256.81
2022-10-06T10:28:29.174Z,102261.91
2022-10-06T10:31:04.431Z,102256.25
2022-10-06T10:33:46.184Z,102262.41
2022-10-06T10:36:26.652Z,102253.09
2022-10-06T10:38:56.063Z,102256.59
2022-10-06T10:41:28.607Z,102260.28
2022-10-06T10:44:08.263Z,102262.84
2022-10-06T10:46:40.977Z,102254.88
2022-10-06T10:49:13.743Z,102262.66
2022-10-06T10:51:45.663Z,102266.16
2022-10-06T10:54:16.607Z,102266.34
2022-10-06T10:56:45.097Z,102265.22
2022-10-06T10:59:20.780Z,102277.69
2022-10-06T11:01:54.693Z,102274.16
2022-10-06T11:04:22.241Z,102278.56
2022-10-06T11:07:01.964Z,102276.28
2022-10-06T11:09:38.917Z,102275.41
2022-10-06T11:12:18.891Z,102273.91
2022-10-06T11:14:54.458Z,102266.91
2022-10-06T11:17:40.229Z,102286.38
2022-10-06T11:20:22.728Z,102286.53
2022-10-06T11:22:57.425Z,102283.06
2022-10-06T11:25:36.656Z,102283.97
2022-10-06T11:28:11.439Z,102278.75
2022-10-06T11:30:52.649Z,102292.59
2022-10-06T11:33:27.249Z,102282.22
2022-10-06T11:35:54.840Z,102293.38
2022-10-06T11:38:31.135Z,102296.91
2022-10-06T11:41:10.116Z,102291.44
2022-10-06T11:43:45.504Z,102292.41
2022-10-06T11:46:31.146Z,102294.88
2022-10-06T11:49:39.360Z,102293.13
2022-10-06T11:52:56.254Z,102300.94
2022-10-06T11:55:26.420Z,102299.03
2022-10-06T11:58:30.236Z,102296.69
2022-10-06T12:00:59.539Z,102293.94
2022-10-06T12:03:49.365Z,102310.03
2022-10-06T12:06:55.339Z,102300.53
2022-10-06T12:09:52.021Z,102296.22
2022-10-06T12:12:44.020Z,102285.75
2022-10-06T12:18:20.957Z,102300.53
2022-10-06T12:21:06.233Z,102292.69
2022-10-06T12:23:45.232Z,102296.16
2022-10-06T12:26:27.898Z,102300.56
2022-10-06T12:29:01.230Z,102295.34
2022-10-06T12:31:45.946Z,102309.22
2022-10-06T12:34:56.806Z,102310.97
2022-10-06T12:37:50.161Z,102324.84
2022-10-06T12:40:50.120Z,102315.34
2022-10-06T12:43:32.875Z,102321.09
2022-10-06T12:46:04.153Z,102313.22
2022-10-06T12:48:38.351Z,102317.44
2022-10-06T12:51:19.195Z,102307.13
2022-10-06T12:53:57.714Z,102316.00
2022-10-06T12:56:31.773Z,102320.47
2022-10-06T12:58:59.578Z,102315.31
2022-10-06T13:01:28.086Z,102317.91
2022-10-06T13:03:56.132Z,102319.63
2022-10-06T13:06:25.514Z,102325.78
2022-10-06T13:09:13.874Z,102322.22
2022-10-06T13:11:41.410Z,102311.84
2022-10-06T13:14:11.017Z,102310.94
2022-10-06T13:16:41.540Z,102316.16
2022-10-06T13:19:17.656Z,102326.69
2022-10-06T13:21:45.864Z,102331.88
2022-10-06T13:24:19.325Z,102333.59
2022-10-06T13:26:48.204Z,102329.28
2022-10-06T13:29:22.244Z,102335.28
2022-10-06T13:31:52.934Z,102331.84
2022-10-06T13:34:29.038Z,102332.78
2022-10-06T13:36:57.378Z,102335.28
2022-10-06T13:39:31.547Z,102328.41
2022-10-06T13:42:03.338Z,102345.78
2022-10-06T13:44:36.680Z,102343.06
2022-10-06T13:47:06.776Z,102340.59
2022-10-06T13:49:37.285Z,102337.97
2022-10-06T13:52:15.023Z,102333.66
2022-10-06T13:54:49.938Z,102348.44
2022-10-06T13:57:37.326Z,102339.75
2022-10-06T14:00:09.681Z,102337.13
2022-10-06T14:02:37.218Z,102335.34
2022-10-06T14:05:26.737Z,102348.44
2022-10-06T14:07:56.864Z,102340.59
2022-10-06T14:10:31.371Z,102342.38
2022-10-06T14:13:01.641Z,102343.25
2022-10-06T14:15:31.667Z,102358.84
2022-10-06T14:18:01.825Z,102358.31
2022-10-06T14:20:46.853Z,102356.19
2022-10-06T14:23:33.576Z,102354.50
2022-10-06T14:26:02.407Z,102351.91
2022-10-06T14:28:29.835Z,102351.94
2022-10-06T14:30:57.617Z,102345.81
2022-10-06T14:33:25.265Z,102359.78
2022-10-06T14:35:52.913Z,102364.84
2022-10-06T14:38:20.640Z,102351.06
2022-10-06T14:40:48.037Z,102359.75
2022-10-06T14:43:16.813Z,102352.75
2022-10-06T14:45:45.236Z,102356.28
2022-10-06T14:48:15.201Z,102353.63
2022-10-06T14:50:44.786Z,102356.31
2022-10-06T14:53:14.709Z,102355.44
2022-10-06T14:55:42.514Z,102358.00
2022-10-06T14:58:09.900Z,102366.72
2022-10-06T15:00:42.290Z,102363.16
2022-10-06T15:03:09.980Z,102362.31
2022-10-06T15:05:59.239Z,102362.13
2022-10-06T15:08:26.106Z,102362.25
2022-10-06T15:10:53.758Z,102365.69
2022-10-06T15:13:21.266Z,102368.38
2022-10-06T15:15:57.589Z,102368.38
2022-10-06T15:18:26.081Z,102365.78
2022-10-06T15:20:54.089Z,102366.63
2022-10-06T15:23:21.575Z,102364.06
2022-10-06T15:26:10.658Z,102374.47
2022-10-06T15:28:55.418Z,102371.84
2022-10-06T15:31:25.197Z,102373.66
2022-10-06T15:33:53.455Z,102373.66
2022-10-06T15:36:23.234Z,102374.34
2022-10-06T15:38:51.135Z,102374.53
2022-10-06T15:41:18.615Z,102375.38
2022-10-06T15:43:57.995Z,102374.50
2022-10-06T15:46:30.069Z,102382.31
2022-10-06T15:49:00.876Z,102369.31
2022-10-06T15:51:30.110Z,102380.59
2022-10-06T15:53:58.844Z,102383.91
2022-10-06T15:56:31.074Z,102371.94
2022-10-06T15:58:58.779Z,102375.25
2022-10-06T16:01:36.582Z,102372.72
2022-10-06T16:04:11.959Z,102379.66
2022-10-06T16:06:50.538Z,102377.88
2022-10-06T16:09:19.623Z,102393.19
2022-10-06T16:11:47.841Z,102390.09
2022-10-06T16:14:16.275Z,102390.94
2022-10-06T16:16:45.885Z,102392.69
2022-10-06T16:19:13.679Z,102385.75
2022-10-06T16:21:41.310Z,102395.31
2022-10-06T16:24:08.855Z,102402.94
2022-10-06T16:26:36.796Z,102398.59
2022-10-06T16:29:04.923Z,102399.50
2022-10-06T16:31:32.752Z,102397.84
2022-10-06T16:34:01.864Z,102401.34
2022-10-06T16:36:29.284Z,102401.38
2022-10-06T16:38:57.029Z,102409.06
2022-10-06T16:41:25.021Z,102402.16
2022-10-06T16:43:54.114Z,102410.00
2022-10-06T16:46:23.464Z,102413.47
2022-10-06T16:48:53.020Z,102423.81
2022-10-06T16:51:23.211Z,102423.69
2022-10-06T16:53:52.272Z,102425.53
2022-10-06T16:56:21.470Z,102420.34
2022-10-06T16:58:50.540Z,102422.00
2022-10-06T17:01:18.515Z,102427.97
2022-10-06T17:03:46.070Z,102430.66
2022-10-06T17:06:15.939Z,102427.13
2022-10-06T17:08:45.707Z,102435.84
2022-10-06T17:11:14.568Z,102443.59
2022-10-06T17:13:44.048Z,102443.41
2022-10-06T17:16:15.293Z,102437.34
2022-10-06T17:18:42.914Z,102442.56
2022-10-06T17:21:39.698Z,102446.91
2022-10-06T17:24:04.575Z,102442.66
2022-10-06T17:26:33.408Z,102446.00
2022-10-06T17:29:02.535Z,102449.53
2022-10-06T17:31:33.318Z,102444.22
2022-10-06T17:34:00.776Z,102441.66
2022-10-06T17:36:28.358Z,102443.34
2022-10-06T17:38:58.627Z,102442.47
2022-10-06T17:41:30.367Z,102440.81
2022-10-06T17:44:00.247Z,102450.22
2022-10-06T17:46:27.886Z,102446.72
2022-10-06T17:48:56.834Z,102445.66
2022-10-06T17:51:26.907Z,102443.22
2022-10-06T17:53:56.128Z,102445.84
2022-10-06T17:56:25.846Z,102445.75
2022-10-06T17:58:56.960Z,102451.88
2022-10-06T18:01:26.498Z,102459.59
2022-10-06T18:03:55.305Z,102451.75
2022-10-06T18:06:24.380Z,102452.59
2022-10-06T18:08:51.749Z,102458.66
2022-10-06T18:11:38.568Z,102458.72
2022-10-06T18:14:09.456Z,102459.31
2022-10-06T18:16:39.543Z,102467.06
2022-10-06T18:19:09.144Z,102467.88
2022-10-06T18:21:38.751Z,102463.47
2022-10-06T18:24:08.911Z,102455.66
2022-10-06T18:26:41.722Z,102456.69
2022-10-06T18:29:12.254Z,102452.09
2022-10-06T18:31:40.175Z,102459.13
2022-10-06T18:36:56.828Z,102459.88
2022-10-06T18:39:24.888Z,102456.19
2022-10-06T18:41:56.481Z,102462.41
2022-10-06T18:44:50.389Z,102464.19
2022-10-06T18:47:35.621Z,102470.16
2022-10-06T18:50:03.033Z,102473.72
2022-10-06T18:52:30.442Z,102464.84
2022-10-06T18:55:00.878Z,102475.03
2022-10-06T18:57:29.627Z,102465.44
2022-10-06T18:59:59.710Z,102463.81
2022-10-06T19:02:27.426Z,102465.44
2022-10-06T19:04:58.737Z,102481.00
2022-10-06T19:07:31.234Z,102482.78
2022-10-06T19:09:59.105Z,102480.84
2022-10-06T19:12:28.885Z,102477.47
2022-10-06T19:14:57.645Z,102475.13
2022-10-06T19:17:26.549Z,102475.16
2022-10-06T19:19:57.084Z,102472.41
2022-10-06T19:22:25.342Z,102482.69
2022-10-06T19:24:53.249Z,102487.66
2022-10-06T19:27:24.367Z,102485.84
2022-10-06T19:29:54.196Z,102499.03
2022-10-06T19:32:25.265Z,102504.22
2022-10-06T19:34:54.920Z,102500.00
2022-10-06T19:37:22.482Z,102497.44
2022-10-06T19:39:50.345Z,102494.44
2022-10-06T19:42:37.584Z,102489.38
2022-10-06T19:45:09.596Z,102499.34
2022-10-06T19:47:37.172Z,102504.41
2022-10-06T19:50:11.636Z,102511.16
2022-10-06T19:52:40.260Z,102499.25
2022-10-06T19:55:07.870Z,102509.66
2022-10-06T19:57:35.696Z,102499.66
2022-10-06T20:00:03.476Z,102495.63
2022-10-06T20:02:30.934Z,102498.75
2022-10-06T20:04:58.490Z,102506.53
2022-10-06T20:07:27.929Z,102505.81
2022-10-06T20:09:56.298Z,102509.66
2022-10-06T20:12:25.231Z,102515.88
2022-10-06T20:14:53.946Z,102512.91
2022-10-06T20:17:23.102Z,102517.22
2022-10-06T20:19:56.696Z,102507.41
2022-10-06T20:22:27.300Z,102512.63
2022-10-06T20:24:54.780Z,102518.50
2022-10-06T20:27:22.294Z,102504.66
2022-10-06T20:29:49.955Z,102518.38
2022-10-06T20:32:18.746Z,102511.69
2022-10-06T20:34:48.299Z,102516.88
2022-10-06T20:37:15.752Z,102519.97
2022-10-06T20:40:02.458Z,102518.63
2022-10-06T20:42:31.230Z,102512.59
2022-10-06T20:44:59.171Z,102525.66
2022-10-06T20:47:26.901Z,102526.28
2022-10-06T20:49:56.372Z,102519.88
2022-10-06T20:52:24.186Z,102526.91
2022-10-06T20:54:52.891Z,102525.50
2022-10-06T20:57:20.532Z,102531.09
2022-10-06T20:59:48.423Z,102528.06
2022-10-06T21:02:16.008Z,102529.47
2022-10-06T21:04:45.135Z,102533.03
2022-10-06T21:07:13.016Z,102536.53
2022-10-06T21:09:40.939Z,102526.00
2022-10-06T21:12:09.815Z,102537.22
2022-10-06T21:14:37.633Z,102534.00
2022-10-06T21:17:05.437Z,102529.53
2022-10-06T21:19:37.922Z,102534.91
2022-10-06T21:22:05.743Z,102526.06
2022-10-06T21:24:33.339Z,102526.47
2022-10-06T21:27:00.933Z,102527.28
2022-10-06T21:29:29.975Z,102527.75
2022-10-06T21:31:57.662Z,102519.16
2022-10-06T21:34:25.658Z,102517.38
2022-10-06T21:36:53.263Z,102527.06
2022-10-06T21:39:20.937Z,102521.06
2022-10-06T21:41:48.441Z,102519.34
2022-10-06T21:44:17.986Z,102512.88
2022-10-06T21:46:49.344Z,102509.25
2022-10-06T21:49:18.251Z,102511.44
2022-10-06T21:51:47.332Z,102509.13
2022-10-06T21:54:15.269Z,102517.59
2022-10-06T21:56:42.952Z,102514.78
2022-10-06T21:59:10.858Z,102511.88
2022-10-06T22:01:40.445Z,102515.28
2022-10-06T22:04:09.857Z,102509.38
2022-10-06T22:06:37.884Z,102514.25
2022-10-06T22:09:06.663Z,102515.09
2022-10-06T22:11:36.502Z,102505.41
2022-10-06T22:14:07.883Z,102511.50
2022-10-06T22:16:36.214Z,102498.78
2022-10-06T22:19:05.798Z,102504.41
2022-10-06T22:21:36.887Z,102505.00
2022-10-06T22:24:06.840Z,102505.78
2022-10-06T22:26:37.424Z,102505.78
2022-10-06T22:29:06.886Z,102500.75
2022-10-06T22:31:35.120Z,102497.66
2022-10-06T22:34:04.796Z,102506.69
2022-10-06T22:36:34.153Z,102502.78
2022-10-06T22:39:02.076Z,102500.19
2022-10-06T22:41:30.346Z,102497.22
2022-10-06T22:43:59.524Z,102493.75
2022-10-06T22:46:28.611Z,102495.09
2022-10-06T22:48:56.664Z,102487.13
2022-10-06T22:51:24.940Z,102487.84
2022-10-06T22:53:57.901Z,102492.59
2022-10-06T22:56:27.084Z,102488.69
2022-10-06T22:58:54.705Z,102487.38
2022-10-06T23:01:22.532Z,102484.72
2022-10-06T23:03:50.205Z,102484.19
2022-10-06T23:06:18.909Z,102482.91
2022-10-06T23:08:46.594Z,102485.22
2022-10-06T23:11:17.190Z,102476.56
2022-10-06T23:13:45.483Z,102474.78
2022-10-06T23:16:14.480Z,102483.25
2022-10-06T23:18:43.411Z,102479.81
2022-10-06T23:21:14.028Z,102482.03
2022-10-06T23:23:41.512Z,102476.72
2022-10-06T23:26:11.771Z,102484.16
2022-10-06T23:28:41.206Z,102480.31
2022-10-06T23:31:10.963Z,102473.69
2022-10-06T23:33:39.335Z,102475.66
2022-10-06T23:36:08.817Z,102486.91
2022-10-06T23:38:37.381Z,102472.91
2022-10-06T23:41:06.119Z,102474.78
2022-10-06T23:43:34.021Z,102481.25
2022-10-06T23:46:03.537Z,102478.44
2022-10-06T23:48:31.112Z,102483.34
2022-10-06T23:51:00.356Z,102475.97
2022-10-06T23:53:28.230Z,102480.56
2022-10-06T23:55:55.785Z,102481.75
2022-10-06T23:58:23.615Z,102473.91
